Latest Coastal Weather Observations for Double Island Point

IDQ60701

Issued at 3:21 am EST Monday 25 May 2015 (issued every 10 minutes, with the page automatically refreshed every 10 minutes)

About coastal observations | Map of coastal stations | Coastal observations for QLD | Marine services | Other Formats
Station Details ID: 040068 Name: DOUBLE ISLAND POINT LIGHTHOUSE Lat: -25.93 Lon: 153.19 Height: 95.64 m
Data from the previous 72 hours. | See also: Recent months at Double Island Point
Date/Time
EST
Temp

°C
Wind Pressure Rain
since 9am
mm
Weather Cloud Vis
km
Sea
Height
m
Swell
Dir
 
Speed
knots
Gust
knots
hPa Trend Height
m
Period
s
Dir
25/03:00am 20.0 SSE 25 30 1027.0 - 1.6 - - - - - - -
25/02:30am 19.8 SSE 26 30 1026.8 - 1.6 - - - - - - -
25/02:00am 19.8 SE 27 30 1026.7 - 1.6 - - - - - - -
25/01:30am 19.8 SE 27 31 1026.6 - 1.6 - - - - - - -
25/01:00am 19.6 SE 28 32 1026.8 - 1.6 - - - - - - -
25/12:30am 19.7 SE 29 32 1026.8 - 1.6 - - - - - - -
25/12:00am 19.7 SE 29 33 1027.0 - 1.6 - - - - - - -
 
Date/Time
EST
Temp

°C
Wind Pressure Rain
since 9am
mm
Weather Cloud Vis
km
Sea
Height
m
Swell
Dir
 
Speed
knots
Gust
knots
hPa Trend Height
m
Period
s
Dir
24/11:30pm 19.8 SE 31 35 1026.8 - 1.6 - - - - - - -
24/11:00pm 19.9 SE 30 35 1027.2 - 1.6 - - - - - - -
24/10:30pm 19.9 SE 31 34 1027.5 - 1.6 - - - - - - -
24/10:00pm 19.9 SE 31 34 1027.3 - 1.6 - - - - - - -
24/09:30pm 20.1 SE 29 33 1027.4 - 1.6 - - - - - - -
24/09:00pm 19.9 SE 28 32 1027.3 - 1.6 - - - - - - -
24/08:30pm 19.9 SE 30 34 1027.1 - 1.6 - - - - - - -
24/08:00pm 19.3 SE 28 31 1027.1 - 1.6 - - - - - - -
24/07:30pm 19.2 SE 22 26 1027.3 - 1.6 - - - - - - -
24/07:00pm 19.4 ESE 27 31 1026.9 - 1.6 - - - - - - -
24/06:30pm 19.2 ESE 27 33 1026.6 - 1.6 - - - - - - -
24/06:00pm 18.8 ESE 28 35 1026.3 - 1.6 Recent precip. - - - - - -
24/05:50pm 18.1 ESE 22 32 1026.5 - 1.6 - - - - - - -
24/05:47pm 18.1 ESE 24 32 1026.5 - 1.6 - - - - - - -
24/05:33pm 18.5 SE 22 32 1026.1 - 1.4 - - - - - - -
24/05:30pm 18.7 SSE 20 27 1026.3 - 1.4 - - - - - - -
24/05:00pm 18.1 SSE 22 28 1026.1 - 1.2 - - - - - - -
24/04:30pm 17.7 SE 23 26 1026.1 - 1.2 - - - - - - -
24/04:13pm 18.0 SSE 19 33 1025.9 - 0.6 - - - - - - -
24/04:00pm 18.6 SSE 21 26 1025.6 - 0.0 - - - - - - -
24/03:30pm 19.1 SSE 25 31 1025.3 - 0.0 - - - - - - -
24/03:00pm 19.1 SSE 24 30 1025.2 - 0.0 - - - - - - -
24/02:48pm 18.7 SSE 25 30 1025.4 - 0.0 - - - - - - -
24/02:30pm 18.1 SSE 32 39 1025.2 - 0.0 - - - - - - -
24/02:00pm 19.8 SSE 26 31 1025.3 - 0.0 - - - - - - -
24/01:30pm 19.2 SSE 26 32 1025.2 - 0.0 - - - - - - -
24/01:00pm 18.4 SSE 27 33 1024.9 - 0.0 - - - - - - -
24/12:30pm 19.7 SSE 25 32 1025.2 - 0.0 - - - - - - -
24/12:00pm 19.6 SSE 24 31 1025.5 - 0.0 - - - - - - -
24/11:30am 19.2 SSE 26 32 1025.9 - 0.0 - - - - - - -
24/11:00am 19.1 SSE 27 34 1026.1 - 0.0 - - - - - - -
24/10:30am 19.2 SSE 27 34 1026.4 - 0.0 - - - - - - -
24/10:00am 19.3 SSE 26 35 1026.1 - 0.0 - - - - - - -
24/09:30am 19.0 SSE 28 35 1026.0 - 0.0 - - - - - - -
24/09:00am 18.6 SSE 28 36 1025.8 - 0.0 - - - - - - -
24/08:30am 18.1 S 27 34 1025.7 - 0.0 - - - - - - -
24/08:00am 17.7 S 26 32 1025.5 - 0.0 - - - - - - -
24/07:30am 17.8 SSE 25 32 1025.2 - 0.0 - - - - - - -
24/07:00am 17.8 SSE 24 31 1025.1 - 0.0 - - - - - - -
24/06:30am 18.0 SSE 26 31 1024.8 - 0.0 - - - - - - -
24/06:00am 18.3 SSE 27 32 1024.2 - 0.0 - - - - - - -
24/05:30am 18.2 SSE 27 33 1023.7 - 0.0 - - - - - - -
24/05:00am 18.2 SSE 28 36 1023.2 - 0.0 - - - - - - -
24/04:30am 18.1 SSE 29 37 1023.2 - 0.0 - - - - - - -
24/04:15am 17.6 S 25 35 1022.9 - 0.0 - - - - - - -
24/04:00am 17.5 SSE 26 34 1023.3 - 0.0 - - - - - - -
24/03:30am 17.6 SSE 27 37 1023.0 - 0.0 - - - - - - -
24/03:00am 17.9 SSE 27 33 1023.1 - 0.0 - - - - - - -
24/02:30am 18.5 SSE 27 34 1023.1 - 0.0 - - - - - - -
24/02:00am 18.8 SSE 29 35 1023.0 - 0.0 - - - - - - -
24/01:30am 18.8 SSE 28 34 1023.0 - 0.0 - - - - - - -
24/01:00am 19.2 SSE 27 33 1023.2 - 0.0 - - - - - - -
24/12:53am 18.9 SSE 26 36 1023.3 - 0.0 - - - - - - -
24/12:30am 19.8 SE 32 37 1023.0 - 0.0 - - - - - - -
24/12:00am 19.8 SE 31 37 1023.1 - 0.0 - - - - - - -
 
Date/Time
EST
Temp

°C
Wind Pressure Rain
since 9am
mm
Weather Cloud Vis
km
Sea
Height
m
Swell
Dir
 
Speed
knots
Gust
knots
hPa Trend Height
m
Period
s
Dir
23/11:34pm 19.1 SE 23 33 1023.1 - 0.0 - - - - - - -
23/11:32pm 18.6 SE 21 31 1023.3 - 0.0 - - - - - - -
23/11:30pm 18.0 SE 21 27 1023.5 - 0.0 - - - - - - -
23/11:00pm 18.7 SSE 25 31 1023.4 - 0.0 - - - - - - -
23/10:30pm 18.5 SSE 27 32 1023.3 - 0.0 - - - - - - -
23/10:00pm 18.1 SSE 28 34 1023.2 - 0.0 - - - - - - -
23/09:30pm 17.4 SSE 31 43 1023.2 - 0.0 - - - - - - -
23/09:23pm 18.3 SSE 30 43 1022.9 - 0.0 - - - - - - -
23/09:00pm 18.9 SSE 29 36 1023.3 - 0.0 - - - - - - -
23/08:30pm 19.3 SSE 32 38 1023.1 - 0.0 - - - - - - -
23/08:00pm 18.8 SSE 34 42 1022.8 - 0.0 - - - - - - -
23/07:50pm 18.6 SSE 35 45 1022.4 - 0.0 - - - - - - -
23/07:30pm 19.2 SSE 32 39 1022.6 - 0.0 - - - - - - -
23/07:00pm 19.0 SSE 31 39 1022.3 - 0.0 - - - - - - -
23/06:30pm 19.4 SSE 34 43 1021.9 - 0.0 - - - - - - -
23/06:00pm 19.3 SSE 34 42 1021.9 - 0.0 - - - - - - -
23/05:34pm 19.6 SSE 34 44 1021.2 - 0.0 - - - - - - -
23/05:30pm 19.7 SSE 33 41 1021.5 - 0.0 - - - - - - -
23/05:00pm 19.7 SSE 34 42 1021.2 - 0.0 - - - - - - -
23/04:30pm 19.9 SSE 33 40 1021.0 - 0.0 - - - - - - -
23/04:00pm 19.8 SSE 35 44 1020.7 - 0.0 - - - - - - -
23/03:53pm 19.7 SSE 34 44 1020.6 - 0.0 - - - - - - -
23/03:30pm 19.9 SSE 35 43 1020.6 - 0.0 - - - - - - -
23/03:00pm 19.9 SSE 34 41 1020.4 - 0.0 - - - - - - -
23/02:30pm 20.1 SSE 35 42 1020.2 - 0.0 - - - - - - -
23/02:00pm 20.0 SSE 35 41 1020.2 - 0.0 - - - - - - -
23/01:30pm 20.3 SSE 37 43 1020.1 - 0.0 - - - - - - -
23/01:00pm 19.6 SSE 31 41 1020.1 - 0.0 - - - - - - -
23/12:55pm 19.9 SSE 32 42 1020.3 - 0.0 - - - - - - -
23/12:30pm 19.5 SSE 33 41 1020.4 - 0.0 - - - - - - -
23/12:00pm 19.3 SSE 33 43 1020.4 - 0.0 - - - - - - -
23/11:56am 19.1 SSE 33 43 1020.3 - 0.0 - - - - - - -
23/11:30am 19.2 SSE 32 40 1020.8 - 0.0 - - - - - - -
23/11:19am 19.2 SSE 32 42 1021.1 - 0.0 - - - - - - -
23/11:00am 18.9 SSE 32 40 1021.0 - 0.0 - - - - - - -
23/10:30am 18.6 SSE 32 40 1021.0 - 0.0 - - - - - - -
23/10:12am 18.3 SSE 30 41 1020.8 - 0.0 - - - - - - -
23/10:00am 18.4 SSE 30 38 1020.8 - 0.0 - - - - - - -
23/09:38am 18.3 SSE 31 41 1020.8 - 0.0 - - - - - - -
23/09:30am 18.3 SSE 32 39 1020.6 - 0.0 - - - - - - -
23/09:05am 18.0 SSE 31 41 1020.1 - 0.0 - - - - - - -
23/09:00am 18.0 SSE 31 39 1020.2 - 0.2 - - - - - - -
23/08:30am 17.9 SSE 33 40 1019.7 - 0.2 - - - - - - -
23/08:12am 18.0 SSE 31 41 1019.4 - 0.2 - - - - - - -
23/08:00am 17.9 SSE 31 39 1019.2 - 0.2 - - - - - - -
23/07:39am 17.7 SSE 34 44 1018.9 - 0.2 - - - - - - -
23/07:30am 17.8 SSE 34 42 1018.7 - 0.2 - - - - - - -
23/07:00am 17.3 SSE 31 38 1018.5 - 0.2 - - - - - - -
23/06:30am 17.1 S 32 40 1018.1 - 0.2 - - - - - - -
23/06:13am 17.1 S 31 41 1018.1 - 0.2 - - - - - - -
23/06:00am 17.0 S 31 39 1018.0 - 0.2 - - - - - - -
23/05:33am 17.0 S 28 39 1017.9 - 0.2 - - - - - - -
23/05:30am 17.0 S 28 36 1018.0 - 0.2 - - - - - - -
23/05:00am 16.8 S 27 33 1018.0 - 0.2 - - - - - - -
23/04:30am 16.7 S 27 35 1017.9 - 0.2 - - - - - - -
23/04:00am 16.7 S 22 32 1018.0 - 0.2 - - - - - - -
23/03:56am 16.7 S 21 32 1018.0 - 0.2 - - - - - - -
23/03:30am 16.6 S 24 31 1018.0 - 0.2 - - - - - - -
23/03:19am 16.6 S 20 30 1017.8 - 0.2 - - - - - - -
23/03:00am 16.0 S 19 25 1018.1 - 0.2 - - - - - - -
23/02:30am 15.9 S 21 26 1018.1 - 0.2 - - - - - - -
23/02:00am 15.6 SSW 19 25 1018.2 - 0.2 - - - - - - -
23/01:30am 15.2 SSW 18 24 1018.5 - 0.2 - - - - - - -
23/01:00am 15.0 SSW 16 20 1018.6 - 0.2 - - - - - - -
23/12:30am 14.6 SSW 14 18 1018.8 - 0.2 - - - - - - -
23/12:00am 14.4 SW 12 18 1019.0 - 0.2 - - - - - - -
 
Date/Time
EST
Temp

°C
Wind Pressure Rain
since 9am
mm
Weather Cloud Vis
km
Sea
Height
m
Swell
Dir
 
Speed
knots
Gust
knots
hPa Trend Height
m
Period
s
Dir
22/11:30pm 14.6 SW 14 20 1018.9 - 0.2 - - - - - - -
22/11:00pm 14.7 SW 17 27 1018.8 - 0.2 - - - - - - -
22/10:51pm 14.7 SW 17 27 1018.8 - 0.2 - - - - - - -
22/10:30pm 14.2 SW 15 22 1018.8 - 0.2 - - - - - - -
22/10:00pm 13.8 SW 11 18 1019.1 - 0.2 - - - - - - -
22/09:30pm 13.8 SW 11 17 1019.2 - 0.2 - - - - - - -
22/09:00pm 13.7 SW 8 13 1019.1 - 0.2 - - - - - - -
22/08:30pm 13.9 WSW 9 11 1018.9 - 0.2 - - - - - - -
22/08:00pm 13.9 SW 8 12 1018.9 - 0.2 - - - - - - -
22/07:30pm 14.2 SW 8 15 1018.7 - 0.2 - - - - - - -
22/07:00pm 14.6 WSW 12 20 1018.1 - 0.2 - - - - - - -
22/06:30pm 15.1 S 9 14 1018.0 - 0.2 - - - - - - -
22/06:00pm 15.6 SW 12 17 1017.3 - 0.2 - - - - - - -
22/05:30pm 16.6 SW 10 15 1016.7 - 0.2 - - - - - - -
22/05:00pm 17.7 WSW 12 19 1016.1 - 0.2 - - - - - - -
22/04:30pm 18.7 W 13 18 1015.8 - 0.2 - - - - - - -
22/04:00pm 19.1 WSW 15 21 1015.5 - 0.2 - - - - - - -
22/03:30pm 20.0 W 11 21 1015.3 - 0.0 - - - - - - -
22/03:00pm 20.4 WSW 11 17 1015.2 - 0.0 - - - - - - -
22/02:30pm 20.2 WSW 11 17 1015.2 - 0.0 - - - - - - -
22/02:00pm 20.3 WSW 14 20 1015.2 - 0.0 - - - - - - -
22/01:30pm 20.2 WSW 13 19 1015.3 - 0.0 - - - - - - -
22/01:00pm 20.0 SW 17 23 1015.4 - 0.0 - - - - - - -
22/12:30pm 20.4 WSW 12 21 1015.7 - 0.0 - - - - - - -
22/12:00pm 20.9 W 8 12 1016.0 - 0.0 - - - - - - -
22/11:30am 19.3 WSW 14 19 1016.7 - 0.0 - - - - - - -
22/11:16am 18.6 WSW 11 19 1016.8 - 0.0 - - - - - - -
22/11:00am 19.3 WSW 5 9 1017.0 - 0.0 - - - - - - -
22/10:30am 18.1 WSW 11 15 1017.2 - 0.0 - - - - - - -
22/10:00am 19.1 WSW 11 16 1017.3 - 0.0 - - - - - - -
22/09:30am 18.2 WSW 13 19 1017.4 - 0.0 - - - - - - -
22/09:00am 17.4 SSW 11 15 1017.5 - 0.4 - - - - - - -
22/08:30am 17.3 SW 13 20 1017.3 - 0.4 - - - - - - -
22/08:00am 17.0 SW 9 12 1017.5 - 0.4 - - - - - - -
22/07:30am 16.9 WSW 9 11 1017.2 - 0.4 - - - - - - -
22/07:00am 17.0 WSW 11 13 1017.1 - 0.4 - - - - - - -
22/06:30am 16.9 W 11 15 1016.6 - 0.4 - - - - - - -
22/06:00am 16.7 WSW 10 13 1016.0 - 0.4 - - - - - - -
22/05:30am 16.8 WSW 11 14 1015.7 - 0.4 - - - - - - -
22/05:00am 16.9 SW 9 14 1015.4 - 0.4 - - - - - - -
22/04:30am 16.8 SSW 6 10 1015.2 - 0.4 - - - - - - -
22/04:00am 16.8 SW 8 11 1015.3 - 0.4 - - - - - - -
22/03:30am 17.3 SW 9 13 1015.5 - 0.4 - - - - - - -

Other Formats:

Comma delimited format used in spreadsheet applications
http://www.bom.gov.au/fwo/IDQ60701/IDQ60701.94584.axf

JavaScript Object Notation format (JSON) in row-major order
http://www.bom.gov.au/fwo/IDQ60701/IDQ60701.94584.json